sensor_id;sensor_type;location;lat;lon;timestamp;pressure;altitude;pressure_sealevel;temperature;humidity
52693;BME280;68218;51.012;-1.648;2023-04-04T00:00:11;101893.25;;;3.26;71.56
52693;BME280;68218;51.012;-1.648;2023-04-04T00:02:37;101883.72;;;3.24;72.19
52693;BME280;68218;51.012;-1.648;2023-04-04T00:05:05;101885.41;;;3.25;71.31
52693;BME280;68218;51.012;-1.648;2023-04-04T00:07:32;101882.75;;;3.25;72.30
52693;BME280;68218;51.012;-1.648;2023-04-04T00:09:57;101883.72;;;3.24;71.00
52693;BME280;68218;51.012;-1.648;2023-04-04T00:12:23;101877.88;;;3.28;71.29
52693;BME280;68218;51.012;-1.648;2023-04-04T00:14:49;101882.78;;;3.16;71.73
52693;BME280;68218;51.012;-1.648;2023-04-04T00:17:16;101874.09;;;3.23;72.15
52693;BME280;68218;51.012;-1.648;2023-04-04T00:19:41;101868.13;;;3.12;72.14
52693;BME280;68218;51.012;-1.648;2023-04-04T00:22:07;101867.16;;;3.05;72.02
52693;BME280;68218;51.012;-1.648;2023-04-04T00:24:32;101866.31;;;3.05;72.23
52693;BME280;68218;51.012;-1.648;2023-04-04T00:26:58;101866.28;;;3.13;72.63
52693;BME280;68218;51.012;-1.648;2023-04-04T00:29:24;101866.16;;;2.98;72.77
52693;BME280;68218;51.012;-1.648;2023-04-04T00:31:49;101865.03;;;2.92;73.28
52693;BME280;68218;51.012;-1.648;2023-04-04T00:34:15;101860.69;;;2.91;73.40
52693;BME280;68218;51.012;-1.648;2023-04-04T00:36:40;101860.88;;;2.90;73.56
52693;BME280;68218;51.012;-1.648;2023-04-04T00:39:06;101862.34;;;3.00;74.14
52693;BME280;68218;51.012;-1.648;2023-04-04T00:41:31;101868.59;;;2.76;74.03
52693;BME280;68218;51.012;-1.648;2023-04-04T00:43:57;101875.88;;;2.83;74.54
52693;BME280;68218;51.012;-1.648;2023-04-04T00:46:22;101862.06;;;2.87;74.87
52693;BME280;68218;51.012;-1.648;2023-04-04T00:48:49;101861.91;;;2.72;74.58
52693;BME280;68218;51.012;-1.648;2023-04-04T00:51:15;101863.94;;;2.62;75.58
52693;BME280;68218;51.012;-1.648;2023-04-04T00:53:43;101868.28;;;2.55;75.20
52693;BME280;68218;51.012;-1.648;2023-04-04T00:56:10;101866.09;;;2.67;75.47
52693;BME280;68218;51.012;-1.648;2023-04-04T00:58:36;101860.28;;;2.63;75.64
52693;BME280;68218;51.012;-1.648;2023-04-04T01:01:02;101860.28;;;2.55;75.74
52693;BME280;68218;51.012;-1.648;2023-04-04T01:03:27;101867.13;;;2.57;75.69
52693;BME280;68218;51.012;-1.648;2023-04-04T01:05:54;101871.44;;;2.58;76.55
52693;BME280;68218;51.012;-1.648;2023-04-04T01:08:23;101859.31;;;2.56;76.93
52693;BME280;68218;51.012;-1.648;2023-04-04T01:10:50;101858.97;;;2.42;77.04
52693;BME280;68218;51.012;-1.648;2023-04-04T01:13:15;101863.16;;;2.45;77.29
52693;BME280;68218;51.012;-1.648;2023-04-04T01:15:41;101859.63;;;2.44;77.52
52693;BME280;68218;51.012;-1.648;2023-04-04T01:18:07;101863.00;;;2.38;77.69
52693;BME280;68218;51.012;-1.648;2023-04-04T01:20:36;101869.63;;;2.26;77.04
52693;BME280;68218;51.012;-1.648;2023-04-04T01:23:06;101863.50;;;2.09;77.51
52693;BME280;68218;51.012;-1.648;2023-04-04T01:25:32;101863.81;;;2.06;77.64
52693;BME280;68218;51.012;-1.648;2023-04-04T01:27:59;101861.66;;;2.10;77.38
52693;BME280;68218;51.012;-1.648;2023-04-04T01:30:30;101858.34;;;2.08;77.39
52693;BME280;68218;51.012;-1.648;2023-04-04T01:33:07;101856.97;;;1.95;77.86
52693;BME280;68218;51.012;-1.648;2023-04-04T01:36:31;101852.16;;;1.82;78.47
52693;BME280;68218;51.012;-1.648;2023-04-04T01:41:08;101851.31;;;1.74;78.40
52693;BME280;68218;51.012;-1.648;2023-04-04T01:43:33;101848.97;;;1.71;78.50
52693;BME280;68218;51.012;-1.648;2023-04-04T01:45:59;101852.50;;;1.79;78.66
52693;BME280;68218;51.012;-1.648;2023-04-04T01:48:25;101851.84;;;1.85;78.36
52693;BME280;68218;51.012;-1.648;2023-04-04T01:50:51;101846.69;;;1.92;77.73
52693;BME280;68218;51.012;-1.648;2023-04-04T01:53:17;101843.53;;;1.97;77.42
52693;BME280;68218;51.012;-1.648;2023-04-04T01:55:42;101843.69;;;1.87;77.73
52693;BME280;68218;51.012;-1.648;2023-04-04T01:58:08;101844.84;;;1.84;77.82
52693;BME280;68218;51.012;-1.648;2023-04-04T02:00:33;101846.88;;;1.99;77.99
52693;BME280;68218;51.012;-1.648;2023-04-04T02:02:59;101844.22;;;1.99;78.23
52693;BME280;68218;51.012;-1.648;2023-04-04T02:05:25;101845.19;;;1.98;78.57
52693;BME280;68218;51.012;-1.648;2023-04-04T02:07:51;101846.34;;;1.95;78.75
52693;BME280;68218;51.012;-1.648;2023-04-04T02:10:17;101837.03;;;1.91;78.98
52693;BME280;68218;51.012;-1.648;2023-04-04T02:12:42;101838.22;;;1.89;79.17
52693;BME280;68218;51.012;-1.648;2023-04-04T02:15:09;101832.88;;;1.80;79.41
52693;BME280;68218;51.012;-1.648;2023-04-04T02:17:35;101839.34;;;1.78;79.31
52693;BME280;68218;51.012;-1.648;2023-04-04T02:20:01;101827.56;;;1.72;79.88
52693;BME280;68218;51.012;-1.648;2023-04-04T02:22:26;101827.06;;;1.68;80.45
52693;BME280;68218;51.012;-1.648;2023-04-04T02:24:52;101832.34;;;1.60;79.89
52693;BME280;68218;51.012;-1.648;2023-04-04T02:27:22;101830.47;;;1.36;79.92
52693;BME280;68218;51.012;-1.648;2023-04-04T02:29:49;101830.44;;;1.28;79.73
52693;BME280;68218;51.012;-1.648;2023-04-04T02:32:14;101834.97;;;1.36;79.81
52693;BME280;68218;51.012;-1.648;2023-04-04T02:34:40;101820.03;;;1.51;78.87
52693;BME280;68218;51.012;-1.648;2023-04-04T02:37:05;101820.03;;;1.59;78.58
52693;BME280;68218;51.012;-1.648;2023-04-04T02:39:30;101817.72;;;1.64;78.21
52693;BME280;68218;51.012;-1.648;2023-04-04T02:41:56;101815.75;;;1.66;77.82
52693;BME280;68218;51.012;-1.648;2023-04-04T02:44:21;101826.03;;;1.69;77.39
52693;BME280;68218;51.012;-1.648;2023-04-04T02:46:47;101826.72;;;1.80;77.55
52693;BME280;68218;51.012;-1.648;2023-04-04T02:49:12;101827.88;;;1.69;77.38
52693;BME280;68218;51.012;-1.648;2023-04-04T02:51:38;101822.22;;;1.64;77.44
52693;BME280;68218;51.012;-1.648;2023-04-04T02:54:04;101820.72;;;1.61;77.51
52693;BME280;68218;51.012;-1.648;2023-04-04T02:56:29;101820.38;;;1.64;77.38
52693;BME280;68218;51.012;-1.648;2023-04-04T02:58:55;101819.56;;;1.72;77.15
52693;BME280;68218;51.012;-1.648;2023-04-04T03:01:20;101815.06;;;1.73;76.66
52693;BME280;68218;51.012;-1.648;2023-04-04T03:03:46;101813.44;;;1.72;76.79
52693;BME280;68218;51.012;-1.648;2023-04-04T03:06:12;101817.56;;;1.66;76.92
52693;BME280;68218;51.012;-1.648;2023-04-04T03:08:39;101817.41;;;1.67;77.07
52693;BME280;68218;51.012;-1.648;2023-04-04T03:11:04;101820.91;;;1.68;77.26
52693;BME280;68218;51.012;-1.648;2023-04-04T03:13:30;101820.06;;;1.67;77.35
52693;BME280;68218;51.012;-1.648;2023-04-04T03:16:03;101818.72;;;1.55;77.52
52693;BME280;68218;51.012;-1.648;2023-04-04T03:18:31;101818.06;;;1.61;77.92
52693;BME280;68218;51.012;-1.648;2023-04-04T03:20:57;101808.41;;;1.60;77.75
52693;BME280;68218;51.012;-1.648;2023-04-04T03:23:23;101812.25;;;1.58;77.77
52693;BME280;68218;51.012;-1.648;2023-04-04T03:25:48;101812.06;;;1.51;77.78
52693;BME280;68218;51.012;-1.648;2023-04-04T03:28:14;101814.56;;;1.53;78.73
52693;BME280;68218;51.012;-1.648;2023-04-04T03:30:39;101799.09;;;1.48;78.23
52693;BME280;68218;51.012;-1.648;2023-04-04T03:33:05;101804.44;;;1.56;78.55
52693;BME280;68218;51.012;-1.648;2023-04-04T03:35:37;101801.09;;;1.54;78.20
52693;BME280;68218;51.012;-1.648;2023-04-04T03:38:03;101799.94;;;1.57;78.54
52693;BME280;68218;51.012;-1.648;2023-04-04T03:40:29;101793.97;;;1.55;78.93
52693;BME280;68218;51.012;-1.648;2023-04-04T03:42:55;101798.25;;;1.56;78.61
52693;BME280;68218;51.012;-1.648;2023-04-04T03:45:20;101798.09;;;1.49;78.71
52693;BME280;68218;51.012;-1.648;2023-04-04T03:47:46;101799.09;;;1.48;78.71
52693;BME280;68218;51.012;-1.648;2023-04-04T03:50:11;101805.06;;;1.50;78.70
52693;BME280;68218;51.012;-1.648;2023-04-04T03:52:37;101800.75;;;1.49;78.88
52693;BME280;68218;51.012;-1.648;2023-04-04T03:55:05;101812.38;;;1.48;78.80
52693;BME280;68218;51.012;-1.648;2023-04-04T03:57:32;101813.88;;;1.42;79.03
52693;BME280;68218;51.012;-1.648;2023-04-04T03:59:57;101815.06;;;1.56;78.97
52693;BME280;68218;51.012;-1.648;2023-04-04T04:02:23;101805.91;;;1.42;79.20
52693;BME280;68218;51.012;-1.648;2023-04-04T04:04:48;101809.38;;;1.43;78.89
52693;BME280;68218;51.012;-1.648;2023-04-04T04:07:14;101814.03;;;1.33;79.82
52693;BME280;68218;51.012;-1.648;2023-04-04T04:09:39;101815.31;;;1.28;79.98
52693;BME280;68218;51.012;-1.648;2023-04-04T04:12:05;101816.69;;;1.33;80.56
52693;BME280;68218;51.012;-1.648;2023-04-04T04:14:30;101801.72;;;1.31;80.27
52693;BME280;68218;51.012;-1.648;2023-04-04T04:16:56;101801.88;;;1.30;80.20
52693;BME280;68218;51.012;-1.648;2023-04-04T04:19:21;101806.03;;;1.33;80.32
52693;BME280;68218;51.012;-1.648;2023-04-04T04:21:47;101810.03;;;1.37;80.08
52693;BME280;68218;51.012;-1.648;2023-04-04T04:24:12;101806.72;;;1.35;80.26
52693;BME280;68218;51.012;-1.648;2023-04-04T04:26:38;101813.34;;;1.30;79.96
52693;BME280;68218;51.012;-1.648;2023-04-04T04:29:04;101806.66;;;1.18;80.68
52693;BME280;68218;51.012;-1.648;2023-04-04T04:31:30;101807.66;;;1.17;80.76
52693;BME280;68218;51.012;-1.648;2023-04-04T04:33:55;101810.97;;;1.19;80.30
52693;BME280;68218;51.012;-1.648;2023-04-04T04:36:21;101811.47;;;1.15;80.77
52693;BME280;68218;51.012;-1.648;2023-04-04T04:38:47;101806.50;;;1.11;80.73
52693;BME280;68218;51.012;-1.648;2023-04-04T04:41:12;101803.81;;;1.03;81.37
52693;BME280;68218;51.012;-1.648;2023-04-04T04:43:37;101808.97;;;1.05;81.11
52693;BME280;68218;51.012;-1.648;2023-04-04T04:46:03;101809.63;;;1.07;81.06
52693;BME280;68218;51.012;-1.648;2023-04-04T04:48:28;101802.63;;;1.06;80.88
52693;BME280;68218;51.012;-1.648;2023-04-04T04:50:53;101804.31;;;1.07;81.10
52693;BME280;68218;51.012;-1.648;2023-04-04T04:53:19;101805.28;;;1.06;81.09
52693;BME280;68218;51.012;-1.648;2023-04-04T04:55:44;101809.97;;;1.12;81.08
52693;BME280;68218;51.012;-1.648;2023-04-04T04:58:10;101803.47;;;1.06;81.39
52693;BME280;68218;51.012;-1.648;2023-04-04T05:00:37;101802.31;;;1.09;81.29
52693;BME280;68218;51.012;-1.648;2023-04-04T05:03:03;101809.63;;;1.07;81.26
52693;BME280;68218;51.012;-1.648;2023-04-04T05:05:35;101802.47;;;1.07;81.51
52693;BME280;68218;51.012;-1.648;2023-04-04T05:08:01;101798.69;;;1.10;81.23
52693;BME280;68218;51.012;-1.648;2023-04-04T05:10:27;101799.50;;;1.10;81.18
52693;BME280;68218;51.012;-1.648;2023-04-04T05:12:53;101799.31;;;1.04;81.56
52693;BME280;68218;51.012;-1.648;2023-04-04T05:15:18;101810.28;;;1.09;81.61
52693;BME280;68218;51.012;-1.648;2023-04-04T05:17:45;101807.47;;;1.10;80.90
52693;BME280;68218;51.012;-1.648;2023-04-04T05:20:10;101804.16;;;1.08;80.90
52693;BME280;68218;51.012;-1.648;2023-04-04T05:22:44;101800.81;;;1.06;81.15
52693;BME280;68218;51.012;-1.648;2023-04-04T05:25:10;101800.63;;;1.08;80.92
52693;BME280;68218;51.012;-1.648;2023-04-04T05:27:36;101802.94;;;1.03;81.50
52693;BME280;68218;51.012;-1.648;2023-04-04T05:30:02;101796.50;;;1.05;81.13
52693;BME280;68218;51.012;-1.648;2023-04-04T05:32:28;101811.25;;;1.08;81.58
52693;BME280;68218;51.012;-1.648;2023-04-04T05:34:53;101801.81;;;1.05;81.31
52693;BME280;68218;51.012;-1.648;2023-04-04T05:37:19;101799.66;;;1.09;81.42
52693;BME280;68218;51.012;-1.648;2023-04-04T05:39:45;101802.28;;;1.01;81.29
52693;BME280;68218;51.012;-1.648;2023-04-04T05:42:10;101803.66;;;1.05;81.57
52693;BME280;68218;51.012;-1.648;2023-04-04T05:44:36;101799.81;;;1.07;81.29
52693;BME280;68218;51.012;-1.648;2023-04-04T05:47:02;101804.63;;;1.04;81.93
52693;BME280;68218;51.012;-1.648;2023-04-04T05:49:27;101797.47;;;1.04;82.14
52693;BME280;68218;51.012;-1.648;2023-04-04T05:51:53;101804.31;;;1.07;82.07
52693;BME280;68218;51.012;-1.648;2023-04-04T05:54:21;101807.31;;;1.12;81.57
52693;BME280;68218;51.012;-1.648;2023-04-04T05:56:47;101807.63;;;1.09;81.65
52693;BME280;68218;51.012;-1.648;2023-04-04T05:59:12;101808.09;;;1.04;82.11
52693;BME280;68218;51.012;-1.648;2023-04-04T06:01:37;101805.78;;;1.09;82.25
52693;BME280;68218;51.012;-1.648;2023-04-04T06:04:04;101806.66;;;1.10;82.07
52693;BME280;68218;51.012;-1.648;2023-04-04T06:06:31;101805.50;;;1.21;82.24
52693;BME280;68218;51.012;-1.648;2023-04-04T06:08:56;101808.84;;;1.23;81.85
52693;BME280;68218;51.012;-1.648;2023-04-04T06:11:22;101814.81;;;1.17;81.49
52693;BME280;68218;51.012;-1.648;2023-04-04T06:13:48;101814.63;;;1.18;81.49
52693;BME280;68218;51.012;-1.648;2023-04-04T06:16:13;101812.66;;;1.20;82.35
52693;BME280;68218;51.012;-1.648;2023-04-04T06:18:39;101820.63;;;1.28;81.65
52693;BME280;68218;51.012;-1.648;2023-04-04T06:21:04;101825.31;;;1.35;81.68
52693;BME280;68218;51.012;-1.648;2023-04-04T06:23:30;101823.03;;;1.48;81.50
52693;BME280;68218;51.012;-1.648;2023-04-04T06:25:55;101829.50;;;1.54;80.91
52693;BME280;68218;51.012;-1.648;2023-04-04T06:28:21;101834.22;;;1.68;81.19
52693;BME280;68218;51.012;-1.648;2023-04-04T06:30:46;101838.19;;;1.80;79.54
52693;BME280;68218;51.012;-1.648;2023-04-04T06:33:12;101841.53;;;1.82;79.71
52693;BME280;68218;51.012;-1.648;2023-04-04T06:35:37;101843.69;;;1.79;79.66
52693;BME280;68218;51.012;-1.648;2023-04-04T06:38:03;101842.34;;;1.83;79.62
52693;BME280;68218;51.012;-1.648;2023-04-04T06:40:29;101842.88;;;1.78;79.51
52693;BME280;68218;51.012;-1.648;2023-04-04T06:42:55;101839.69;;;1.83;79.31
52693;BME280;68218;51.012;-1.648;2023-04-04T06:45:23;101851.00;;;2.01;79.54
52693;BME280;68218;51.012;-1.648;2023-04-04T06:47:49;101847.50;;;2.17;78.41
52693;BME280;68218;51.012;-1.648;2023-04-04T06:50:16;101842.69;;;2.37;78.42
52693;BME280;68218;51.012;-1.648;2023-04-04T06:52:41;101847.94;;;2.70;77.95
52693;BME280;68218;51.012;-1.648;2023-04-04T06:55:09;101840.09;;;2.77;76.51
52693;BME280;68218;51.012;-1.648;2023-04-04T06:57:35;101839.03;;;2.94;76.74
52693;BME280;68218;51.012;-1.648;2023-04-04T07:00:01;101841.44;;;3.21;75.91
52693;BME280;68218;51.012;-1.648;2023-04-04T07:02:27;101842.78;;;3.48;75.48
52693;BME280;68218;51.012;-1.648;2023-04-04T07:04:53;101847.22;;;3.64;73.86
52693;BME280;68218;51.012;-1.648;2023-04-04T07:07:18;101842.50;;;3.89;74.36
52693;BME280;68218;51.012;-1.648;2023-04-04T07:09:43;101835.94;;;4.00;73.46
52693;BME280;68218;51.012;-1.648;2023-04-04T07:12:09;101844.56;;;4.25;72.46
52693;BME280;68218;51.012;-1.648;2023-04-04T07:14:34;101844.41;;;4.41;70.55
52693;BME280;68218;51.012;-1.648;2023-04-04T07:16:59;101846.66;;;4.53;70.82
52693;BME280;68218;51.012;-1.648;2023-04-04T07:19:25;101840.47;;;4.37;69.97
52693;BME280;68218;51.012;-1.648;2023-04-04T07:21:53;101836.88;;;4.45;70.64
52693;BME280;68218;51.012;-1.648;2023-04-04T07:24:19;101831.06;;;4.71;70.44
52693;BME280;68218;51.012;-1.648;2023-04-04T07:26:44;101836.34;;;4.94;69.59
52693;BME280;68218;51.012;-1.648;2023-04-04T07:29:10;101837.16;;;5.10;69.68
52693;BME280;68218;51.012;-1.648;2023-04-04T07:31:35;101841.22;;;5.05;68.06
52693;BME280;68218;51.012;-1.648;2023-04-04T07:34:01;101836.53;;;4.93;68.32
52693;BME280;68218;51.012;-1.648;2023-04-04T07:36:27;101836.63;;;5.36;66.38
52693;BME280;68218;51.012;-1.648;2023-04-04T07:38:53;101836.09;;;5.62;67.00
52693;BME280;68218;51.012;-1.648;2023-04-04T07:41:18;101832.53;;;5.55;67.18
52693;BME280;68218;51.012;-1.648;2023-04-04T07:43:45;101833.16;;;5.35;66.27
52693;BME280;68218;51.012;-1.648;2023-04-04T07:46:11;101838.66;;;5.49;66.40
52693;BME280;68218;51.012;-1.648;2023-04-04T07:48:36;101830.38;;;5.87;66.48
52693;BME280;68218;51.012;-1.648;2023-04-04T07:51:02;101839.16;;;5.80;64.57
52693;BME280;68218;51.012;-1.648;2023-04-04T07:53:29;101829.44;;;5.73;66.45
52693;BME280;68218;51.012;-1.648;2023-04-04T07:55:54;101818.78;;;6.01;65.88
52693;BME280;68218;51.012;-1.648;2023-04-04T07:58:19;101820.75;;;5.49;66.30
52693;BME280;68218;51.012;-1.648;2023-04-04T08:00:46;101820.44;;;5.80;66.64
52693;BME280;68218;51.012;-1.648;2023-04-04T08:03:11;101819.81;;;5.78;66.27
52693;BME280;68218;51.012;-1.648;2023-04-04T08:05:37;101820.75;;;5.92;66.86
52693;BME280;68218;51.012;-1.648;2023-04-04T08:08:02;101826.94;;;6.14;66.72
52693;BME280;68218;51.012;-1.648;2023-04-04T08:10:28;101820.53;;;6.37;66.61
52693;BME280;68218;51.012;-1.648;2023-04-04T08:12:53;101817.56;;;6.53;67.23
52693;BME280;68218;51.012;-1.648;2023-04-04T08:15:19;101815.78;;;6.67;66.65
52693;BME280;68218;51.012;-1.648;2023-04-04T08:17:44;101796.16;;;6.60;66.46
52693;BME280;68218;51.012;-1.648;2023-04-04T08:20:10;101801.09;;;6.56;65.13
52693;BME280;68218;51.012;-1.648;2023-04-04T08:22:37;101798.00;;;7.01;66.03
52693;BME280;68218;51.012;-1.648;2023-04-04T08:25:03;101797.97;;;6.94;65.28
52693;BME280;68218;51.012;-1.648;2023-04-04T08:27:29;101798.09;;;7.28;64.85
52693;BME280;68218;51.012;-1.648;2023-04-04T08:29:55;101796.16;;;7.08;64.84
52693;BME280;68218;51.012;-1.648;2023-04-04T08:32:20;101798.88;;;7.15;64.06
52693;BME280;68218;51.012;-1.648;2023-04-04T08:34:46;101795.03;;;7.38;64.22
52693;BME280;68218;51.012;-1.648;2023-04-04T08:37:12;101799.59;;;7.44;63.37
52693;BME280;68218;51.012;-1.648;2023-04-04T08:39:37;101800.22;;;7.53;63.82
52693;BME280;68218;51.012;-1.648;2023-04-04T08:42:05;101793.84;;;7.74;61.86
52693;BME280;68218;51.012;-1.648;2023-04-04T08:44:32;101795.06;;;7.51;61.97
52693;BME280;68218;51.012;-1.648;2023-04-04T08:47:02;101785.56;;;7.55;61.77
52693;BME280;68218;51.012;-1.648;2023-04-04T08:49:32;101789.91;;;7.49;61.73
52693;BME280;68218;51.012;-1.648;2023-04-04T08:52:01;101774.25;;;7.73;62.03
52693;BME280;68218;51.012;-1.648;2023-04-04T08:54:27;101781.25;;;7.61;60.20
52693;BME280;68218;51.012;-1.648;2023-04-04T08:56:55;101777.25;;;7.37;61.04
52693;BME280;68218;51.012;-1.648;2023-04-04T08:59:20;101772.16;;;7.82;61.44
52693;BME280;68218;51.012;-1.648;2023-04-04T09:01:46;101770.28;;;7.76;60.00
52693;BME280;68218;51.012;-1.648;2023-04-04T09:04:12;101766.78;;;8.15;60.54
52693;BME280;68218;51.012;-1.648;2023-04-04T09:06:37;101772.56;;;8.19;58.38
52693;BME280;68218;51.012;-1.648;2023-04-04T09:09:03;101769.47;;;8.02;60.53
52693;BME280;68218;51.012;-1.648;2023-04-04T09:11:30;101765.94;;;8.35;58.50
52693;BME280;68218;51.012;-1.648;2023-04-04T09:13:57;101767.16;;;8.52;56.81
52693;BME280;68218;51.012;-1.648;2023-04-04T09:16:23;101761.59;;;9.06;56.41
52693;BME280;68218;51.012;-1.648;2023-04-04T09:18:48;101767.47;;;9.28;54.04
52693;BME280;68218;51.012;-1.648;2023-04-04T09:21:14;101760.53;;;9.13;54.94
52693;BME280;68218;51.012;-1.648;2023-04-04T09:23:39;101763.56;;;9.24;52.72
52693;BME280;68218;51.012;-1.648;2023-04-04T09:26:05;101770.88;;;9.10;52.50
52693;BME280;68218;51.012;-1.648;2023-04-04T09:28:31;101769.28;;;8.95;53.69
52693;BME280;68218;51.012;-1.648;2023-04-04T09:31:00;101765.19;;;9.31;52.97
52693;BME280;68218;51.012;-1.648;2023-04-04T09:33:27;101772.03;;;9.59;51.19
52693;BME280;68218;51.012;-1.648;2023-04-04T09:35:57;101769.22;;;9.79;49.53
52693;BME280;68218;51.012;-1.648;2023-04-04T09:38:24;101771.66;;;10.31;50.45
52693;BME280;68218;51.012;-1.648;2023-04-04T09:40:50;101774.03;;;10.64;48.93
52693;BME280;68218;51.012;-1.648;2023-04-04T09:43:17;101786.31;;;10.79;47.48
52693;BME280;68218;51.012;-1.648;2023-04-04T09:45:44;101779.66;;;10.63;48.54
52693;BME280;68218;51.012;-1.648;2023-04-04T09:48:10;101795.94;;;9.81;48.03
52693;BME280;68218;51.012;-1.648;2023-04-04T09:50:36;101793.59;;;10.16;50.20
52693;BME280;68218;51.012;-1.648;2023-04-04T09:53:02;101786.47;;;10.47;48.38
52693;BME280;68218;51.012;-1.648;2023-04-04T09:56:09;101784.66;;;10.78;46.86
52693;BME280;68218;51.012;-1.648;2023-04-04T09:58:18;101770.88;;;10.86;48.19
52693;BME280;68218;51.012;-1.648;2023-04-04T10:00:47;101778.97;;;10.67;46.97
52693;BME280;68218;51.012;-1.648;2023-04-04T10:03:16;101773.78;;;10.84;46.24
52693;BME280;68218;51.012;-1.648;2023-04-04T10:05:44;101784.22;;;11.30;45.60
52693;BME280;68218;51.012;-1.648;2023-04-04T10:08:17;101784.66;;;10.78;44.80
52693;BME280;68218;51.012;-1.648;2023-04-04T10:10:56;101783.59;;;10.60;43.24
52693;BME280;68218;51.012;-1.648;2023-04-04T10:13:29;101785.88;;;9.94;43.23
52693;BME280;68218;51.012;-1.648;2023-04-04T10:15:56;101783.03;;;10.77;45.11
52693;BME280;68218;51.012;-1.648;2023-04-04T10:18:26;101785.34;;;10.73;44.45
52693;BME280;68218;51.012;-1.648;2023-04-04T10:20:56;101783.50;;;11.22;45.56
52693;BME280;68218;51.012;-1.648;2023-04-04T10:23:22;101784.03;;;11.13;43.37
52693;BME280;68218;51.012;-1.648;2023-04-04T10:25:51;101786.91;;;10.62;46.37
52693;BME280;68218;51.012;-1.648;2023-04-04T10:28:17;101793.44;;;10.73;43.10
52693;BME280;68218;51.012;-1.648;2023-04-04T10:30:51;101789.13;;;11.63;43.51
52693;BME280;68218;51.012;-1.648;2023-04-04T10:33:26;101783.13;;;11.91;42.15
52693;BME280;68218;51.012;-1.648;2023-04-04T10:35:57;101778.31;;;11.93;42.03
52693;BME280;68218;51.012;-1.648;2023-04-04T10:38:27;101785.69;;;12.69;44.29
52693;BME280;68218;51.012;-1.648;2023-04-04T10:40:55;101778.66;;;12.97;41.85
52693;BME280;68218;51.012;-1.648;2023-04-04T10:43:24;101779.38;;;12.40;40.61
52693;BME280;68218;51.012;-1.648;2023-04-04T10:45:51;101782.63;;;11.83;43.03
52693;BME280;68218;51.012;-1.648;2023-04-04T10:48:17;101781.94;;;11.99;43.92
52693;BME280;68218;51.012;-1.648;2023-04-04T10:50:44;101779.38;;;13.33;41.08
52693;BME280;68218;51.012;-1.648;2023-04-04T10:53:11;101777.91;;;13.13;38.87
52693;BME280;68218;51.012;-1.648;2023-04-04T10:55:37;101781.06;;;13.51;39.59
52693;BME280;68218;51.012;-1.648;2023-04-04T10:58:04;101784.69;;;13.27;40.76
52693;BME280;68218;51.012;-1.648;2023-04-04T11:00:30;101784.09;;;13.25;42.80
52693;BME280;68218;51.012;-1.648;2023-04-04T11:02:59;101778.34;;;14.35;40.34
52693;BME280;68218;51.012;-1.648;2023-04-04T11:10:32;101776.81;;;13.72;38.33
52693;BME280;68218;51.012;-1.648;2023-04-04T11:13:01;101776.78;;;13.38;37.95
52693;BME280;68218;51.012;-1.648;2023-04-04T11:15:54;101778.31;;;12.29;42.43
52693;BME280;68218;51.012;-1.648;2023-04-04T11:18:22;101778.47;;;12.86;39.16
52693;BME280;68218;51.012;-1.648;2023-04-04T11:21:22;101781.16;;;14.23;38.86
52693;BME280;68218;51.012;-1.648;2023-04-04T11:28:58;101770.19;;;15.19;36.71
52693;BME280;68218;51.012;-1.648;2023-04-04T11:31:27;101764.91;;;14.85;37.05
52693;BME280;68218;51.012;-1.648;2023-04-04T11:34:13;101774.41;;;13.58;38.05
52693;BME280;68218;51.012;-1.648;2023-04-04T11:39:21;101772.13;;;14.57;41.83
52693;BME280;68218;51.012;-1.648;2023-04-04T11:42:06;101760.50;;;15.60;37.67
52693;BME280;68218;51.012;-1.648;2023-04-04T11:44:39;101765.00;;;16.14;37.45
52693;BME280;68218;51.012;-1.648;2023-04-04T11:49:33;101765.84;;;16.15;36.40
52693;BME280;68218;51.012;-1.648;2023-04-04T11:52:03;101772.78;;;14.86;37.86
52693;BME280;68218;51.012;-1.648;2023-04-04T11:54:29;101765.97;;;14.05;37.85
52693;BME280;68218;51.012;-1.648;2023-04-04T11:56:56;101772.13;;;13.84;36.46
52693;BME280;68218;51.012;-1.648;2023-04-04T11:59:21;101772.44;;;14.21;39.34
52693;BME280;68218;51.012;-1.648;2023-04-04T12:01:48;101771.47;;;13.60;37.13
52693;BME280;68218;51.012;-1.648;2023-04-04T12:04:17;101769.22;;;15.08;36.26
52693;BME280;68218;51.012;-1.648;2023-04-04T12:06:46;101771.19;;;15.67;37.58
52693;BME280;68218;51.012;-1.648;2023-04-04T12:09:14;101758.34;;;15.95;31.58
52693;BME280;68218;51.012;-1.648;2023-04-04T12:11:42;101761.44;;;16.56;33.86
52693;BME280;68218;51.012;-1.648;2023-04-04T12:14:16;101768.72;;;15.11;36.92
52693;BME280;68218;51.012;-1.648;2023-04-04T12:16:42;101761.38;;;15.66;36.38
52693;BME280;68218;51.012;-1.648;2023-04-04T12:19:08;101761.84;;;15.58;33.34
52693;BME280;68218;51.012;-1.648;2023-04-04T12:21:34;101762.97;;;15.07;35.30
52693;BME280;68218;51.012;-1.648;2023-04-04T12:23:59;101756.84;;;15.44;34.83
52693;BME280;68218;51.012;-1.648;2023-04-04T12:26:25;101746.38;;;15.04;32.41
52693;BME280;68218;51.012;-1.648;2023-04-04T12:28:54;101762.13;;;14.79;35.33
52693;BME280;68218;51.012;-1.648;2023-04-04T12:31:21;101741.25;;;15.67;36.27
52693;BME280;68218;51.012;-1.648;2023-04-04T12:33:47;101749.59;;;15.87;37.97
52693;BME280;68218;51.012;-1.648;2023-04-04T12:36:12;101760.28;;;13.56;39.97
52693;BME280;68218;51.012;-1.648;2023-04-04T12:39:06;101740.16;;;13.69;38.29
52693;BME280;68218;51.012;-1.648;2023-04-04T12:41:33;101730.66;;;14.84;35.12
52693;BME280;68218;51.012;-1.648;2023-04-04T12:44:04;101732.59;;;15.10;37.49
52693;BME280;68218;51.012;-1.648;2023-04-04T12:46:38;101727.91;;;15.33;38.88
52693;BME280;68218;51.012;-1.648;2023-04-04T12:49:05;101740.94;;;14.82;38.62
52693;BME280;68218;51.012;-1.648;2023-04-04T12:51:32;101726.91;;;14.46;38.93
52693;BME280;68218;51.012;-1.648;2023-04-04T12:53:58;101723.56;;;14.38;38.84
52693;BME280;68218;51.012;-1.648;2023-04-04T12:56:25;101718.63;;;15.02;39.63
52693;BME280;68218;51.012;-1.648;2023-04-04T12:58:51;101726.63;;;14.25;40.55
52693;BME280;68218;51.012;-1.648;2023-04-04T13:01:19;101725.16;;;14.34;41.91
52693;BME280;68218;51.012;-1.648;2023-04-04T13:03:45;101719.25;;;14.42;41.49